Time;durP1;ratioP1;P1;durP2;ratioP2;P2;SDS_P1;SDS_P2;PMS_P1;PMS_P2;Temp;Humidity;BMP_temperature;BMP_pressure;BME280_temperature;BME280_humidity;BME280_pressure;Samples;Min_cycle;Max_cycle;Signal;HPM_P1;HPM_P2
2021/03/28 00:01:20;;;;;;;10.50;4.72;;;;;;;2.60;71.28;101592.03;1752641;81;21139;-75
2021/03/28 00:03:58;;;;;;;8.03;3.98;;;;;;;2.53;71.38;101602.05;1716375;82;21431;-77
2021/03/28 00:06:29;;;;;;;12.90;5.50;;;;;;;2.48;71.47;101597.53;1725933;81;21151;-75
2021/03/28 00:09:24;;;;;;;10.25;4.47;;;;;;;2.44;71.57;101603.91;1726219;81;21152;-75
2021/03/28 00:12:24;;;;;;;9.63;4.90;;;;;;;2.42;71.66;101596.58;1725847;83;21989;-74
2021/03/28 00:15:14;;;;;;;8.55;4.15;;;;;;;2.39;71.81;101599.86;1726027;81;21145;-74
2021/03/28 00:17:50;;;;;;;8.35;4.83;;;;;;;2.33;71.93;101593.14;1732877;81;25943;-74
2021/03/28 00:20:22;;;;;;;9.50;4.15;;;;;;;2.30;72.04;101597.27;1740647;81;21139;-74
2021/03/28 00:23:08;;;;;;;9.65;4.50;;;;;;;2.26;72.12;101595.74;1756209;81;21155;-74
2021/03/28 00:25:51;;;;;;;11.38;4.28;;;;;;;2.22;72.20;101604.74;1726270;81;21081;-74
2021/03/28 00:28:38;;;;;;;7.65;3.65;;;;;;;2.17;72.32;101605.49;1726677;81;21127;-74
2021/03/28 00:31:26;;;;;;;8.65;4.60;;;;;;;2.14;72.45;101610.08;1726404;83;21200;-75
2021/03/28 00:34:16;;;;;;;8.48;6.00;;;;;;;2.11;72.52;101609.76;1726174;83;21171;-75
2021/03/28 00:36:47;;;;;;;12.47;7.67;;;;;;;2.08;72.61;101607.30;1725425;83;21179;-75
2021/03/28 00:39:19;;;;;;;10.65;6.50;;;;;;;2.06;72.73;101617.08;1746830;81;21167;-75
2021/03/28 00:41:56;;;;;;;17.45;11.75;;;;;;;2.03;72.79;101619.89;1759622;81;21528;-75
2021/03/28 00:44:23;;;;;;;12.95;5.55;;;;;;;2.02;72.90;101618.18;1761280;80;21291;-75
2021/03/28 00:46:55;;;;;;;8.15;4.50;;;;;;;2.00;73.00;101622.69;1762023;81;21166;-75
2021/03/28 00:49:39;;;;;;;10.38;5.03;;;;;;;1.99;73.09;101628.88;1761793;81;21550;-75
2021/03/28 00:52:17;;;;;;;11.95;5.85;;;;;;;1.96;73.16;101623.79;1762093;81;21123;-75
2021/03/28 00:54:58;;;;;;;10.23;4.72;;;;;;;1.90;73.24;101621.51;1735786;81;21565;-75
2021/03/28 00:57:39;;;;;;;10.53;4.42;;;;;;;1.85;73.31;101627.47;1707358;82;23351;-75
2021/03/28 01:00:39;;;;;;;11.78;5.05;;;;;;;1.83;73.41;101634.12;1731794;82;21071;-74
2021/03/28 01:03:10;;;;;;;9.98;4.42;;;;;;;1.82;73.48;101633.76;1730986;82;21142;-75
2021/03/28 01:05:50;;;;;;;7.17;4.10;;;;;;;1.81;73.58;101635.14;1731702;82;21178;-75
2021/03/28 01:09:05;;;;;;;5.95;4.10;;;;;;;1.79;73.65;101634.39;1705737;82;21059;-75
2021/03/28 01:11:55;;;;;;;8.83;4.28;;;;;;;1.77;73.71;101641.50;1731569;82;21257;-75
2021/03/28 01:14:32;;;;;;;7.92;4.65;;;;;;;1.73;73.86;101644.76;1731604;82;21206;-75
2021/03/28 01:17:24;;;;;;;10.68;7.15;;;;;;;1.74;73.91;101645.61;1731621;82;21155;-75
2021/03/28 01:20:20;;;;;;;8.43;6.00;;;;;;;1.72;73.99;101651.44;1754754;81;21122;-75
2021/03/28 01:23:09;;;;;;;8.98;5.10;;;;;;;1.66;74.08;101648.66;1761851;81;21127;-75
2021/03/28 01:25:55;;;;;;;5.55;3.20;;;;;;;1.64;74.12;101650.98;1734335;81;21214;-75
2021/03/28 01:28:47;;;;;;;5.87;4.20;;;;;;;1.64;74.21;101647.05;1761546;81;21565;-74
2021/03/28 01:31:45;;;;;;;6.40;3.83;;;;;;;1.62;74.26;101644.98;1761915;81;21119;-75
2021/03/28 01:34:34;;;;;;;9.65;4.65;;;;;;;1.59;74.34;101647.74;1735963;81;21584;-75
2021/03/28 01:37:15;;;;;;;9.58;4.72;;;;;;;1.54;74.42;101646.70;1761998;80;21123;-74
2021/03/28 01:40:07;;;;;;;7.78;3.95;;;;;;;1.51;74.50;101651.63;1761902;80;21204;-74
2021/03/28 01:43:19;;;;;;;6.85;4.35;;;;;;;1.46;74.53;101645.78;1761973;81;21123;-74
2021/03/28 01:46:11;;;;;;;13.15;5.03;;;;;;;1.48;74.63;101653.11;1814472;77;22812;-75
2021/03/28 01:48:58;;;;;;;5.53;4.00;;;;;;;1.41;74.67;101652.20;1758941;80;21120;-75
2021/03/28 01:51:36;;;;;;;13.03;4.83;;;;;;;1.39;74.73;101651.44;1788006;80;21209;-75
2021/03/28 01:54:08;;;;;;;14.50;5.47;;;;;;;1.38;74.80;101655.84;1768756;80;21143;-75
2021/03/28 01:57:02;;;;;;;8.90;4.33;;;;;;;1.36;74.84;101653.77;1788167;80;21124;-75
2021/03/28 01:59:51;;;;;;;9.00;5.08;;;;;;;1.35;74.89;101659.09;1788107;80;21552;-75
2021/03/28 02:02:35;;;;;;;9.83;6.75;;;;;;;1.34;74.98;101657.39;1787829;80;21187;-75
2021/03/28 02:05:20;;;;;;;11.57;5.65;;;;;;;1.34;75.04;101664.81;1787877;80;22027;-75
2021/03/28 02:08:29;;;;;;;8.08;4.33;;;;;;;1.32;75.10;101662.74;1784865;80;21570;-75
2021/03/28 02:11:31;;;;;;;8.63;4.00;;;;;;;1.31;75.20;101654.92;1785530;80;21147;-75
2021/03/28 02:14:36;;;;;;;8.20;5.12;;;;;;;1.28;75.25;101657.26;1785721;79;21154;-75
2021/03/28 02:17:07;;;;;;;10.20;4.87;;;;;;;1.27;75.31;101656.86;1787645;79;21123;-75
2021/03/28 02:19:36;;;;;;;8.65;3.70;;;;;;;1.25;75.35;101654.80;1785904;80;21261;-75
2021/03/28 02:22:19;;;;;;;8.05;4.08;;;;;;;1.23;75.42;101659.26;1787886;79;21134;-75
2021/03/28 02:24:59;;;;;;;10.32;4.25;;;;;;;1.22;75.46;101661.98;1758460;80;21116;-75
2021/03/28 02:27:48;;;;;;;9.15;5.00;;;;;;;1.20;75.53;101655.48;1788080;80;21140;-74
2021/03/28 02:30:40;;;;;;;10.35;4.28;;;;;;;1.17;75.59;101658.27;1787855;80;21561;-74
2021/03/28 02:33:28;;;;;;;12.73;5.08;;;;;;;1.16;75.66;101664.45;1786472;80;21201;-75
2021/03/28 02:36:08;;;;;;;10.68;4.72;;;;;;;1.12;75.72;101661.62;1769170;80;21769;-75
2021/03/28 02:39:11;;;;;;;11.85;5.42;;;;;;;1.11;75.78;101666.94;1725267;83;21127;-75
2021/03/28 02:41:46;;;;;;;9.68;6.45;;;;;;;1.10;75.81;101670.48;1726850;83;21194;-74
2021/03/28 02:44:36;;;;;;;9.75;5.65;;;;;;;1.09;75.87;101680.13;1726655;83;21632;-75
2021/03/28 02:47:36;;;;;;;9.08;5.30;;;;;;;1.08;75.90;101678.46;1726633;83;22218;-75
2021/03/28 02:50:36;;;;;;;7.90;4.40;;;;;;;1.08;75.96;101686.34;1728800;81;21175;-75
2021/03/28 02:53:20;;;;;;;6.80;4.70;;;;;;;1.12;76.02;101687.89;1726878;83;21096;-75
2021/03/28 02:56:08;;;;;;;10.45;5.22;;;;;;;1.11;76.08;101689.27;1726511;83;21175;-75
2021/03/28 02:58:59;;;;;;;9.85;5.37;;;;;;;1.09;76.14;101697.20;1726326;82;21154;-75
2021/03/28 03:02:00;;;;;;;8.80;5.10;;;;;;;1.07;76.21;101697.77;1726161;82;21994;-75
2021/03/28 03:05:04;;;;;;;11.63;5.47;;;;;;;1.05;76.25;101700.09;1726073;83;21158;-75
2021/03/28 03:07:51;;;;;;;9.40;4.72;;;;;;;1.05;76.28;101700.95;1726331;83;21138;-75
2021/03/28 03:11:06;;;;;;;9.93;4.53;;;;;;;1.04;76.35;101700.55;1726365;82;21230;-75
2021/03/28 03:14:28;;;;;;;8.35;4.97;;;;;;;1.05;76.38;101706.66;1726131;82;21112;-75
2021/03/28 03:18:25;;;;;;;11.38;4.83;;;;;;;1.08;76.47;101706.50;1821812;77;22467;-75
2021/03/28 03:21:37;;;;;;;11.53;6.60;;;;;;;1.03;76.50;101709.34;1855297;77;21136;-75
2021/03/28 03:25:01;;;;;;;11.53;6.62;;;;;;;1.05;76.60;101714.08;1834130;77;21205;-75
2021/03/28 03:27:58;;;;;;;9.08;5.70;;;;;;;1.05;76.65;101714.53;1820966;78;21131;-75
2021/03/28 03:30:44;;;;;;;8.55;5.05;;;;;;;1.03;76.71;101714.59;1826237;78;21584;-75
2021/03/28 03:33:28;;;;;;;10.35;5.67;;;;;;;1.00;76.73;101722.18;1821529;78;21157;-75
2021/03/28 03:36:32;;;;;;;8.90;4.83;;;;;;;0.99;76.77;101727.03;1813471;78;21136;-75
2021/03/28 03:39:11;;;;;;;10.05;4.97;;;;;;;0.98;76.78;101733.23;1795761;79;21233;-75
2021/03/28 03:41:46;;;;;;;7.35;4.42;;;;;;;0.97;76.86;101729.36;1794537;79;21077;-75
2021/03/28 03:44:52;;;;;;;11.33;5.90;;;;;;;0.96;76.89;101736.84;1795367;79;21106;-75
2021/03/28 03:47:40;;;;;;;10.60;5.55;;;;;;;0.95;76.94;101741.73;1828231;78;21143;-75
2021/03/28 03:50:46;;;;;;;9.03;5.15;;;;;;;0.94;76.99;101743.96;1828053;78;21052;-75
2021/03/28 03:53:38;;;;;;;12.05;5.70;;;;;;;0.92;77.04;101744.48;1828425;78;21823;-75
2021/03/28 03:56:27;;;;;;;10.85;5.40;;;;;;;0.92;77.08;101749.73;1827604;78;21651;-75
2021/03/28 03:59:30;;;;;;;11.40;6.35;;;;;;;0.88;77.12;101752.97;1828308;78;21123;-75
2021/03/28 04:02:09;;;;;;;11.33;6.58;;;;;;;0.85;77.18;101749.19;1828114;78;21113;-74
2021/03/28 04:04:56;;;;;;;12.30;5.97;;;;;;;0.84;77.21;101745.34;1828338;78;21092;-74
2021/03/28 04:07:53;;;;;;;9.58;5.70;;;;;;;0.81;77.24;101746.31;1757856;79;21160;-75
2021/03/28 04:10:31;;;;;;;10.95;5.00;;;;;;;0.81;77.26;101742.87;1797072;79;21628;-74
2021/03/28 04:13:38;;;;;;;8.95;4.40;;;;;;;0.84;77.32;101753.22;1796997;79;21126;-75
2021/03/28 04:16:19;;;;;;;10.10;4.90;;;;;;;0.85;77.34;101754.89;1793806;79;21115;-75
2021/03/28 04:19:18;;;;;;;8.53;4.33;;;;;;;0.86;77.41;101753.52;1786071;80;21095;-75
2021/03/28 04:22:23;;;;;;;8.37;4.00;;;;;;;0.87;77.47;101755.23;1786425;80;22123;-74
2021/03/28 04:25:35;;;;;;;7.67;4.05;;;;;;;0.88;77.53;101758.71;1786182;80;21827;-74
2021/03/28 04:28:22;;;;;;;10.50;4.55;;;;;;;0.88;77.56;101760.84;1785642;80;21154;-75
2021/03/28 04:30:59;;;;;;;8.65;4.85;;;;;;;0.87;77.61;101753.92;1785677;80;21536;-75
2021/03/28 04:33:58;;;;;;;7.70;4.53;;;;;;;0.84;77.62;101754.07;1803277;79;21478;-75
2021/03/28 04:37:16;;;;;;;10.58;4.97;;;;;;;0.84;77.69;101761.09;1815916;79;21249;-75
2021/03/28 04:39:54;;;;;;;10.70;5.15;;;;;;;0.81;77.69;101761.25;1816147;79;21588;-75
2021/03/28 04:42:38;;;;;;;8.63;5.40;;;;;;;0.81;77.72;101758.63;1816261;79;21168;-74
2021/03/28 04:45:58;;;;;;;10.00;5.65;;;;;;;0.81;77.75;101761.25;1815413;79;21144;-75
2021/03/28 04:49:11;;;;;;;12.82;5.37;;;;;;;0.80;77.76;101756.45;1815967;79;21101;-75
2021/03/28 04:52:22;;;;;;;9.40;4.50;;;;;;;0.86;77.79;101771.05;1785560;80;21741;-75
2021/03/28 04:55:09;;;;;;;7.92;4.10;;;;;;;0.90;77.82;101776.55;1785609;80;21194;-75
2021/03/28 04:58:03;;;;;;;23.62;4.58;;;;;;;0.95;77.86;101780.62;1779334;80;21095;-75
2021/03/28 05:00:44;;;;;;;7.42;4.10;;;;;;;1.05;77.87;101781.05;1780741;80;21135;-75
2021/03/28 05:03:37;;;;;;;8.45;4.95;;;;;;;1.20;77.95;101792.09;1785131;80;21126;-75
2021/03/28 05:06:40;;;;;;;10.95;4.78;;;;;;;1.39;78.01;101792.89;1781845;80;21314;-75
2021/03/28 05:09:46;;;;;;;8.38;4.58;;;;;;;1.81;78.07;101786.36;1785662;80;21135;-75
2021/03/28 05:12:53;;;;;;;9.33;5.03;;;;;;;2.28;78.09;101793.91;1785670;80;21146;-76
2021/03/28 05:15:30;;;;;;;9.68;4.65;;;;;;;2.91;78.02;101793.45;1785017;80;21138;-75
2021/03/28 05:18:29;;;;;;;8.83;4.60;;;;;;;3.52;77.87;101794.69;1785175;78;21152;-76
2021/03/28 05:21:42;;;;;;;10.65;4.80;;;;;;;3.91;77.79;101805.11;1785375;80;21256;-76
2021/03/28 05:24:36;;;;;;;9.03;4.78;;;;;;;4.33;77.58;101807.76;1788260;79;21174;-76
2021/03/28 05:27:46;;;;;;;7.25;4.30;;;;;;;4.70;77.27;101812.91;1814973;79;21108;-75
2021/03/28 05:30:44;;;;;;;9.73;4.80;;;;;;;5.08;76.94;101817.52;1815990;79;21213;-76
2021/03/28 05:33:30;;;;;;;11.93;4.53;;;;;;;5.23;76.62;101821.81;1810180;78;21140;-76
2021/03/28 05:36:25;;;;;;;9.78;4.90;;;;;;;5.41;76.21;101821.45;1785560;79;21201;-76
2021/03/28 05:39:45;;;;;;;11.65;5.55;;;;;;;5.61;75.91;101823.22;1824721;78;21186;-76
2021/03/28 05:42:30;;;;;;;;;;;;;;;5.80;75.59;101831.62;1826724;78;21138;-77
2021/03/28 05:45:25;;;;;;;10.85;5.78;;;;;;;5.75;74.75;101833.73;1823452;78;20253;-76
2021/03/28 05:48:33;;;;;;;11.90;5.17;;;;;;;5.29;74.14;101832.83;1824796;78;21142;-77
2021/03/28 05:51:30;;;;;;;8.53;4.35;;;;;;;4.76;74.15;101843.37;1824775;78;21181;-77
2021/03/28 05:54:24;;;;;;;9.20;4.87;;;;;;;4.52;74.33;101853.69;1824641;78;21098;-77
2021/03/28 05:57:24;;;;;;;7.97;4.20;;;;;;;4.47;74.42;101852.64;1824465;78;21138;-78
2021/03/28 06:00:40;;;;;;;12.68;5.95;;;;;;;4.52;74.43;101855.87;1823848;78;21122;-78
2021/03/28 06:03:44;;;;;;;12.37;6.12;;;;;;;4.69;74.40;101849.98;1824553;77;21527;-78
2021/03/28 06:06:40;;;;;;;12.03;5.97;;;;;;;4.65;74.40;101851.12;1824708;78;21228;-77
2021/03/28 06:09:51;;;;;;;7.95;4.58;;;;;;;4.39;74.36;101852.30;1823869;78;21139;-77
2021/03/28 06:13:05;;;;;;;7.35;4.00;;;;;;;4.50;74.24;101864.34;1824739;78;21142;-77
2021/03/28 06:15:56;;;;;;;7.72;3.87;;;;;;;4.42;74.20;101870.59;1843917;77;21131;-77
2021/03/28 06:19:16;;;;;;;10.95;4.80;;;;;;;4.19;74.16;101871.13;1856633;77;21560;-77
2021/03/28 06:22:16;;;;;;;12.23;5.80;;;;;;;3.95;74.11;101871.28;1856738;77;21210;-78
2021/03/28 06:25:17;;;;;;;11.78;4.92;;;;;;;3.93;74.07;101874.50;1856459;77;21138;-77
2021/03/28 06:28:24;;;;;;;11.20;5.87;;;;;;;4.16;73.95;101880.55;1856089;77;21151;-77
2021/03/28 06:31:41;;;;;;;10.93;5.67;;;;;;;4.32;73.84;101864.65;1856406;77;21190;-77
2021/03/28 06:34:31;;;;;;;10.70;6.67;;;;;;;4.67;73.79;101866.42;1856606;77;21175;-78
2021/03/28 06:37:47;;;;;;;10.60;5.45;;;;;;;5.02;73.68;101872.97;1855107;77;25026;-78
2021/03/28 06:40:44;;;;;;;12.45;7.12;;;;;;;5.15;73.54;101869.05;1852239;77;21123;-78
2021/03/28 06:43:57;;;;;;;19.00;9.48;;;;;;;5.08;73.43;101875.21;1841653;76;21134;-78
2021/03/28 06:46:55;;;;;;;11.93;5.08;;;;;;;5.16;73.34;101876.89;1841458;76;21275;-77
2021/03/28 06:50:14;;;;;;;9.98;5.22;;;;;;;5.39;73.21;101876.23;1828496;77;21892;-82
2021/03/28 06:53:14;;;;;;;8.25;5.47;;;;;;;5.60;73.01;101884.55;1772232;77;22648;-77
2021/03/28 06:55:45;;;;;;;10.13;4.90;;;;;;;5.79;72.91;101885.04;1731542;81;21116;-78
2021/03/28 06:58:36;;;;;;;17.62;5.75;;;;;;;5.81;72.68;101888.89;1733773;82;21179;-78
2021/03/28 07:01:36;;;;;;;17.15;8.43;;;;;;;5.63;72.49;101886.17;1733607;81;21127;-77
2021/03/28 07:04:33;;;;;;;18.37;9.45;;;;;;;5.62;72.37;101892.41;1733112;82;21134;-78
2021/03/28 07:07:36;;;;;;;16.23;7.45;;;;;;;5.57;72.27;101891.84;1726806;81;21632;-78
2021/03/28 07:10:23;;;;;;;17.75;9.43;;;;;;;5.49;72.13;101885.27;1691591;83;21149;-78
2021/03/28 07:13:45;;;;;;;14.98;6.80;;;;;;;5.74;72.03;101887.60;1691918;84;22140;-78
2021/03/28 07:16:49;;;;;;;17.30;8.10;;;;;;;6.07;71.88;101881.41;1644902;87;21692;-77
2021/03/28 07:19:52;;;;;;;17.70;8.28;;;;;;;6.31;71.67;101874.41;1811283;78;23255;-77
2021/03/28 07:23:03;;;;;;;17.80;8.93;;;;;;;6.34;71.63;101873.34;1796265;79;21009;-77
2021/03/28 07:26:07;;;;;;;10.23;6.30;;;;;;;6.44;71.53;101877.90;1726966;81;21170;-77
2021/03/28 07:28:39;;;;;;;17.00;6.12;;;;;;;6.33;71.39;101875.14;1695642;83;21210;-77
2021/03/28 07:31:42;;;;;;;13.93;6.45;;;;;;;6.34;71.26;101874.20;1776200;78;21064;-77
2021/03/28 07:34:38;;;;;;;16.30;6.70;;;;;;;6.41;71.12;101878.12;1733609;81;21200;-77
2021/03/28 07:37:29;;;;;;;16.20;6.95;;;;;;;6.56;70.97;101879.33;1765477;81;21131;-77
2021/03/28 07:40:24;;;;;;;14.07;6.30;;;;;;;6.60;70.76;101878.16;1765549;81;21211;-77
2021/03/28 07:43:29;;;;;;;12.45;6.17;;;;;;;6.51;70.57;101879.16;1765085;81;21174;-77
2021/03/28 07:46:23;;;;;;;16.32;6.10;;;;;;;6.47;70.42;101873.70;1766076;78;21529;-77
2021/03/28 07:49:16;;;;;;;18.37;5.20;;;;;;;6.44;70.26;101877.05;1799881;78;21563;-77
2021/03/28 07:52:07;;;;;;;14.80;5.47;;;;;;;6.37;70.09;101887.23;1757539;80;21114;-77
2021/03/28 07:55:24;;;;;;;19.65;6.12;;;;;;;6.36;69.98;101885.55;1752511;81;21564;-78
2021/03/28 07:58:16;;;;;;;19.98;9.83;;;;;;;6.43;69.89;101884.65;1734956;82;21151;-78
2021/03/28 08:01:15;;;;;;;18.10;6.42;;;;;;;6.65;69.75;101882.67;1704162;82;21155;-77
2021/03/28 08:04:08;;;;;;;23.27;15.68;;;;;;;6.77;69.55;101888.41;1735173;82;21138;-77
2021/03/28 08:06:43;;;;;;;21.25;7.95;;;;;;;6.90;69.40;101889.22;1734026;82;21130;-78
2021/03/28 08:09:26;;;;;;;15.60;5.70;;;;;;;6.90;69.28;101885.24;1734584;81;21939;-78
2021/03/28 08:12:09;;;;;;;17.87;5.83;;;;;;;6.89;69.20;101886.23;1733908;81;21198;-77
2021/03/28 08:15:03;;;;;;;11.97;6.08;;;;;;;6.90;69.08;101885.24;1706741;82;21225;-77
2021/03/28 08:17:41;;;;;;;12.85;4.95;;;;;;;6.96;68.92;101892.78;1733718;82;21618;-77
2021/03/28 08:20:49;;;;;;;16.75;6.83;;;;;;;7.02;68.79;101889.69;1741148;79;21192;-77
2021/03/28 08:23:51;;;;;;;18.27;5.33;;;;;;;6.95;68.65;101895.91;1755644;80;21370;-77
2021/03/28 08:27:00;;;;;;;14.75;4.92;;;;;;;6.96;68.56;101890.13;1757299;81;21207;-77
2021/03/28 08:30:01;;;;;;;18.70;6.72;;;;;;;7.09;68.45;101891.41;1753750;80;21474;-78
2021/03/28 08:33:03;;;;;;;16.52;5.95;;;;;;;7.27;68.33;101888.75;1755738;81;21623;-78
2021/03/28 08:36:25;;;;;;;15.85;6.00;;;;;;;7.49;68.17;101884.90;1745566;82;21618;-78
2021/03/28 08:39:32;;;;;;;17.25;5.08;;;;;;;7.56;68.04;101891.45;1726404;83;21206;-77
2021/03/28 08:42:27;;;;;;;22.73;7.60;;;;;;;7.61;67.86;101881.78;1725273;83;21171;-78
2021/03/28 08:45:22;;;;;;;16.65;6.95;;;;;;;7.66;67.73;101887.61;1738179;81;21157;-77
2021/03/28 08:48:16;;;;;;;19.55;6.37;;;;;;;7.77;67.56;101887.66;1756957;81;21164;-78
2021/03/28 08:51:14;;;;;;;39.10;17.70;;;;;;;7.88;67.34;101885.05;1756657;81;21107;-78
2021/03/28 08:54:12;;;;;;;22.40;6.95;;;;;;;7.80;67.11;101881.64;1755901;81;21203;-78
2021/03/28 08:56:52;;;;;;;39.35;13.72;;;;;;;7.85;66.92;101886.58;1715559;81;21203;-78
2021/03/28 08:59:45;;;;;;;29.95;11.03;;;;;;;8.03;66.77;101889.17;1727130;82;21179;-78
2021/03/28 09:02:43;;;;;;;15.95;6.05;;;;;;;8.11;66.59;101881.95;1756879;81;21183;-78
2021/03/28 09:05:38;;;;;;;21.93;7.60;;;;;;;8.16;66.45;101884.64;1756863;81;21136;-78
2021/03/28 09:08:25;;;;;;;24.27;6.35;;;;;;;8.28;66.24;101882.82;1755615;81;21269;-79
2021/03/28 09:11:43;;;;;;;23.10;7.85;;;;;;;8.21;65.97;101882.45;1756851;81;21154;-78
2021/03/28 09:14:50;;;;;;;32.80;11.80;;;;;;;8.20;65.70;101886.06;1757037;81;21116;-79
2021/03/28 09:17:39;;;;;;;33.95;11.33;;;;;;;8.22;65.46;101889.47;1756703;81;21152;-78
2021/03/28 09:20:39;;;;;;;24.43;7.45;;;;;;;8.25;65.19;101891.89;1765128;81;21170;-78
2021/03/28 09:23:40;;;;;;;;;;;;;;;8.30;65.02;101895.05;1734455;81;21234;-78
2021/03/28 09:26:31;;;;;;;21.93;7.22;;;;;;;8.35;64.74;101904.86;1759910;81;20299;-78
2021/03/28 09:29:33;;;;;;;18.95;5.47;;;;;;;8.47;64.58;101892.44;1733860;82;21182;-78
2021/03/28 09:32:27;;;;;;;25.65;8.95;;;;;;;8.49;64.28;101895.33;1760146;81;21615;-78
2021/03/28 09:35:19;;;;;;;33.73;12.70;;;;;;;8.58;64.14;101895.11;1754121;81;21124;-78
2021/03/28 09:38:01;;;;;;;19.90;5.12;;;;;;;8.81;63.97;101902.58;1749696;81;21179;-78
2021/03/28 09:40:47;;;;;;;16.97;4.80;;;;;;;8.98;63.79;101904.74;1753827;80;21207;-78
2021/03/28 09:43:34;;;;;;;17.23;4.87;;;;;;;9.06;63.52;101912.11;1732915;81;21592;-79
2021/03/28 09:46:18;;;;;;;13.45;3.65;;;;;;;9.09;63.28;101905.21;1754443;80;21180;-79
2021/03/28 09:49:22;;;;;;;12.95;2.90;;;;;;;9.15;63.08;101903.41;1754281;81;21141;-79
2021/03/28 09:52:32;;;;;;;14.45;4.22;;;;;;;9.20;62.77;101911.37;1752806;81;21280;-78
2021/03/28 09:55:50;;;;;;;13.20;3.80;;;;;;;9.12;62.23;101908.47;1743925;81;21590;-78
2021/03/28 09:58:53;;;;;;;9.45;3.33;;;;;;;8.99;61.69;101902.45;1737167;81;21140;-78
2021/03/28 10:01:45;;;;;;;17.03;5.43;;;;;;;9.13;61.18;101898.20;1785265;77;28101;-76
2021/03/28 10:04:32;;;;;;;10.88;3.37;;;;;;;9.26;60.87;101898.89;1763510;80;21117;-76
2021/03/28 10:07:01;;;;;;;10.70;3.98;;;;;;;9.37;60.54;101896.68;1752479;81;21198;-78
2021/03/28 10:10:00;;;;;;;15.20;4.95;;;;;;;9.38;60.21;101893.91;1761383;80;21091;-78
2021/03/28 10:12:43;;;;;;;14.58;3.25;;;;;;;9.39;59.83;101906.22;1788355;80;21056;-78
2021/03/28 10:15:21;;;;;;;10.65;3.40;;;;;;;9.32;59.48;101901.04;1768715;80;20993;-77
2021/03/28 10:18:08;;;;;;;10.60;3.15;;;;;;;9.37;59.26;101898.86;1784299;80;21067;-77
2021/03/28 10:21:09;;;;;;;14.25;3.08;;;;;;;9.29;58.87;101901.30;1766316;80;21199;-77
2021/03/28 10:24:23;;;;;;;8.63;2.95;;;;;;;9.27;58.63;101898.41;1773672;80;21046;-77
2021/03/28 10:27:07;;;;;;;15.70;4.08;;;;;;;9.20;58.37;101894.07;1757654;80;21134;-77
2021/03/28 10:30:32;;;;;;;11.60;3.37;;;;;;;9.27;58.22;101896.59;1759221;80;21172;-77
2021/03/28 10:33:28;;;;;;;14.15;4.87;;;;;;;9.36;58.10;101891.84;1756857;81;21144;-77
2021/03/28 10:36:41;;;;;;;11.55;3.37;;;;;;;9.47;57.90;101893.14;1737945;81;21370;-78
2021/03/28 10:39:50;;;;;;;16.90;3.15;;;;;;;9.51;57.56;101894.58;1721747;83;21200;-77
2021/03/28 10:42:55;;;;;;;9.55;3.33;;;;;;;9.50;57.15;101888.04;1752084;81;25937;-78
2021/03/28 10:45:49;;;;;;;13.80;4.70;;;;;;;9.57;56.88;101893.73;1751992;81;21160;-78
2021/03/28 10:48:48;;;;;;;9.28;3.77;;;;;;;9.58;56.52;101900.73;1750657;81;21141;-78
2021/03/28 10:52:00;;;;;;;12.80;3.83;;;;;;;9.49;56.13;101887.70;1717976;81;22176;-78
2021/03/28 10:54:57;;;;;;;11.65;4.58;;;;;;;9.44;55.82;101893.88;1712854;83;21207;-78
2021/03/28 10:58:02;;;;;;;12.88;4.00;;;;;;;9.51;55.71;101895.91;1717548;83;21137;-78
2021/03/28 11:01:14;;;;;;;12.65;4.55;;;;;;;9.67;55.70;101891.99;1698120;84;21555;-77
2021/03/28 11:04:25;;;;;;;17.20;5.78;;;;;;;9.75;55.63;101893.51;1665396;84;21163;-78
2021/03/28 11:07:19;;;;;;;14.55;3.77;;;;;;;9.90;55.47;101888.23;1724170;81;21209;-78
2021/03/28 11:10:15;;;;;;;9.80;3.27;;;;;;;9.88;55.29;101894.20;1726680;82;21454;-78
2021/03/28 11:13:36;;;;;;;11.15;3.55;;;;;;;9.95;55.17;101894.04;1730707;82;21722;-78
2021/03/28 11:16:29;;;;;;;9.63;3.60;;;;;;;9.90;55.07;101890.42;1672072;85;21207;-78
2021/03/28 11:19:50;;;;;;;45.80;25.30;;;;;;;9.93;55.02;101893.30;1700692;82;21164;-78
2021/03/28 11:22:43;;;;;;;15.43;7.03;;;;;;;9.98;54.85;101900.44;1695002;84;21215;-78
2021/03/28 11:25:23;;;;;;;10.85;4.40;;;;;;;9.91;54.64;101900.59;1683940;84;21168;-77
2021/03/28 11:27:57;;;;;;;9.53;4.00;;;;;;;9.92;54.63;101896.97;1706261;82;21100;-78
2021/03/28 11:30:47;;;;;;;11.28;3.58;;;;;;;9.92;54.55;101894.30;1719996;82;21584;-77
2021/03/28 11:33:36;;;;;;;15.10;3.70;;;;;;;9.92;54.50;101897.78;1711512;82;21656;-78
2021/03/28 11:36:10;;;;;;;13.32;5.15;;;;;;;9.94;54.35;101892.34;1717102;82;21199;-77
2021/03/28 11:38:42;;;;;;;21.00;8.85;;;;;;;9.88;54.17;101888.38;1722260;82;21518;-78
2021/03/28 11:41:17;;;;;;;13.20;4.50;;;;;;;9.88;54.13;101892.86;1705717;82;21167;-77
2021/03/28 11:43:48;;;;;;;11.18;3.92;;;;;;;9.99;54.06;101880.30;1682600;84;21612;-77
2021/03/28 11:46:37;;;;;;;13.48;3.67;;;;;;;9.96;53.79;101874.39;1664111;83;21203;-77
2021/03/28 11:49:10;;;;;;;10.85;3.90;;;;;;;9.86;53.56;101870.81;1697120;84;21177;-78
2021/03/28 11:51:42;;;;;;;11.83;3.90;;;;;;;9.93;53.56;101870.66;1678674;83;21195;-78
2021/03/28 11:54:15;;;;;;;41.58;15.68;;;;;;;9.92;53.47;101864.47;1674132;84;21641;-77
2021/03/28 11:56:55;;;;;;;13.60;5.03;;;;;;;9.97;53.46;101862.77;1671042;85;21169;-77
2021/03/28 11:59:26;;;;;;;;;;;;;;;10.00;53.32;101870.49;1710184;82;21164;-77
2021/03/28 12:02:03;;;;;;;15.53;5.67;;;;;;;10.09;53.36;101872.39;1689057;84;21393;-77
2021/03/28 12:04:35;;;;;;;15.40;4.47;;;;;;;10.16;53.24;101872.27;1720235;82;21612;-78
2021/03/28 12:07:31;;;;;;;12.90;4.47;;;;;;;10.11;53.10;101870.43;1728077;82;21171;-76
2021/03/28 12:13:10;;;;;;;9.20;3.93;;;;;;;10.32;52.92;101860.63;1786005;77;38137;-77
2021/03/28 12:15:52;;;;;;;15.68;5.53;;;;;;;10.43;52.78;101860.55;1769331;80;21143;-77
2021/03/28 12:18:33;;;;;;;13.05;4.00;;;;;;;10.43;52.62;101849.88;1764732;80;22142;-77
2021/03/28 12:21:08;;;;;;;8.00;3.58;;;;;;;10.46;52.57;101849.60;1761518;80;21203;-77
2021/03/28 12:23:39;;;;;;;11.53;4.03;;;;;;;10.44;52.49;101843.57;1779329;79;21016;-77
2021/03/28 12:26:21;;;;;;;9.38;3.00;;;;;;;10.55;52.46;101844.45;1781778;80;21562;-77
2021/03/28 12:28:51;;;;;;;12.88;3.65;;;;;;;10.50;52.26;101845.70;1771805;80;21156;-77
2021/03/28 12:31:38;;;;;;;10.25;3.22;;;;;;;10.48;52.23;101842.30;1784125;80;21647;-77
2021/03/28 12:34:24;;;;;;;14.00;3.62;;;;;;;10.55;52.19;101849.30;1770949;80;21249;-77
2021/03/28 12:37:15;;;;;;;19.82;5.53;;;;;;;10.64;52.00;101835.14;1745171;82;22206;-77
2021/03/28 12:39:48;;;;;;;13.55;3.50;;;;;;;10.67;51.78;101830.87;1745015;81;21211;-77
2021/03/28 12:42:31;;;;;;;5.70;2.58;;;;;;;10.76;51.55;101833.23;1744937;82;21488;-77
2021/03/28 12:45:11;;;;;;;9.20;2.60;;;;;;;10.72;51.07;101832.66;1754144;80;21603;-77
2021/03/28 12:47:56;;;;;;;8.95;3.05;;;;;;;10.66;50.63;101821.17;1783541;80;21154;-77
2021/03/28 12:50:32;;;;;;;10.23;2.90;;;;;;;10.66;50.32;101819.02;1764681;80;21219;-77
2021/03/28 12:53:05;;;;;;;14.28;3.20;;;;;;;10.65;49.78;101826.17;1746644;80;21159;-77
2021/03/28 12:55:44;;;;;;;10.53;2.37;;;;;;;10.62;49.53;101821.59;1739883;80;21239;-77
2021/03/28 12:58:17;;;;;;;13.75;3.67;;;;;;;10.63;49.41;101818.77;1754300;81;21993;-77
2021/03/28 13:00:57;;;;;;;10.98;2.85;;;;;;;10.69;49.34;101818.74;1755626;81;21159;-77
2021/03/28 13:03:42;;;;;;;9.03;2.83;;;;;;;10.79;49.29;101814.27;1741136;81;21227;-78
2021/03/28 13:06:29;;;;;;;16.35;4.47;;;;;;;10.79;49.12;101812.94;1716065;81;21567;-78
2021/03/28 13:08:58;;;;;;;7.20;2.70;;;;;;;10.79;49.06;101806.27;1724971;81;21157;-78
2021/03/28 13:11:55;;;;;;;15.32;6.35;;;;;;;10.80;48.94;101810.63;1729381;81;22670;-78
2021/03/28 13:14:31;;;;;;;8.35;3.42;;;;;;;10.90;48.92;101806.16;1761575;81;21199;-78
2021/03/28 13:17:19;;;;;;;8.90;2.72;;;;;;;11.06;48.84;101806.45;1759632;81;21118;-78
2021/03/28 13:19:50;;;;;;;13.85;3.92;;;;;;;11.09;48.70;101802.16;1729827;81;21200;-78
2021/03/28 13:22:38;;;;;;;7.83;2.92;;;;;;;11.09;48.66;101794.16;1733596;81;21178;-78
2021/03/28 13:25:21;;;;;;;11.18;4.15;;;;;;;11.09;48.56;101796.82;1713458;83;21233;-78
2021/03/28 13:28:13;;;;;;;25.80;13.75;;;;;;;11.07;48.44;101795.28;1669239;84;21671;-78